Time;durP1;ratioP1;P1;durP2;ratioP2;P2;SDS_P1;SDS_P2;PMS_P1;PMS_P2;Temp;Humidity;BMP_temperature;BMP_pressure;BME280_temperature;BME280_humidity;BME280_pressure;Samples;Min_cycle;Max_cycle;Signal;HPM_P1;HPM_P2
2020/12/30 00:00:07;;;;;;;3.60;0.38;;;17.70;56.80;;;;;;4852866;29;20053;-59
2020/12/30 00:02:39;;;;;;;3.25;0.50;;;17.70;57.00;;;;;;4853080;29;20053;-59
2020/12/30 00:05:07;;;;;;;1.27;0.38;;;17.70;57.20;;;;;;4851820;29;20065;-59
2020/12/30 00:07:34;;;;;;;1.15;0.52;;;17.60;57.00;;;;;;4851665;29;20133;-59
2020/12/30 00:10:01;;;;;;;0.85;0.63;;;17.70;57.10;;;;;;4850483;29;20057;-59
2020/12/30 00:12:28;;;;;;;0.60;0.52;;;17.70;57.10;;;;;;4851671;29;20142;-59
2020/12/30 00:14:55;;;;;;;1.83;1.23;;;17.70;57.00;;;;;;4853793;29;20601;-59
2020/12/30 00:17:22;;;;;;;0.30;0.22;;;17.70;57.40;;;;;;4853158;29;20061;-59
2020/12/30 00:19:49;;;;;;;0.70;0.30;;;17.70;57.50;;;;;;4852554;29;20068;-60
2020/12/30 00:22:16;;;;;;;1.92;1.08;;;17.70;57.50;;;;;;4849448;29;20458;-60
2020/12/30 00:24:42;;;;;;;2.63;0.30;;;17.70;57.30;;;;;;4850522;29;20038;-59
2020/12/30 00:27:10;;;;;;;0.85;0.30;;;17.70;57.20;;;;;;4849912;29;20130;-60
2020/12/30 00:29:36;;;;;;;1.33;0.38;;;17.70;57.30;;;;;;4852551;29;20522;-59
2020/12/30 00:32:03;;;;;;;0.57;0.20;;;17.70;57.10;;;;;;4852044;29;20056;-59
2020/12/30 00:34:31;;;;;;;2.00;0.60;;;17.70;57.20;;;;;;4851644;29;20121;-59
2020/12/30 00:37:00;;;;;;;1.00;0.32;;;17.70;57.20;;;;;;4837549;29;20141;-59
2020/12/30 00:39:26;;;;;;;1.65;0.68;;;17.70;57.20;;;;;;4856526;29;20410;-59
2020/12/30 00:41:53;;;;;;;0.80;0.30;;;17.70;57.10;;;;;;4856682;29;20720;-59
2020/12/30 00:44:21;;;;;;;3.15;0.55;;;17.70;56.90;;;;;;4835384;29;20056;-58
2020/12/30 00:46:51;;;;;;;0.40;0.30;;;17.70;57.00;;;;;;4853598;29;20110;-60
2020/12/30 00:49:18;;;;;;;1.30;0.45;;;17.70;56.90;;;;;;4835690;29;20072;-61
2020/12/30 00:51:49;;;;;;;0.60;0.20;;;17.70;57.40;;;;;;4853354;29;20052;-59
2020/12/30 00:54:16;;;;;;;0.30;0.30;;;17.70;56.80;;;;;;4838340;29;20058;-59
2020/12/30 00:56:42;;;;;;;3.40;0.70;;;17.70;56.70;;;;;;4840505;29;20144;-59
2020/12/30 00:59:09;;;;;;;0.38;0.20;;;17.70;56.90;;;;;;4851725;29;20045;-59
2020/12/30 01:01:36;;;;;;;2.00;0.35;;;17.70;56.80;;;;;;4832992;29;20099;-59
2020/12/30 01:04:23;;;;;;;0.57;0.20;;;17.70;57.40;;;;;;4848256;29;20053;-62
2020/12/30 01:06:50;;;;;;;0.43;0.35;;;17.70;57.30;;;;;;4847826;29;20056;-60
2020/12/30 01:09:16;;;;;;;0.85;0.25;;;17.70;56.80;;;;;;4854697;29;20068;-61
2020/12/30 01:11:43;;;;;;;1.23;0.30;;;17.70;56.70;;;;;;4856534;29;20049;-61
2020/12/30 01:14:10;;;;;;;0.50;0.50;;;17.70;56.60;;;;;;4864844;29;20045;-61
2020/12/30 01:16:38;;;;;;;1.02;0.30;;;17.70;56.60;;;;;;4857932;29;20081;-61
2020/12/30 01:19:06;;;;;;;0.63;0.40;;;17.70;56.60;;;;;;4854753;29;20163;-61
2020/12/30 01:21:32;;;;;;;4.32;0.38;;;17.70;56.60;;;;;;4853682;29;20519;-60
2020/12/30 01:23:59;;;;;;;0.65;0.52;;;17.60;56.60;;;;;;4855426;29;20046;-61
2020/12/30 01:26:25;;;;;;;2.28;0.60;;;17.60;56.50;;;;;;4862307;29;20075;-60
2020/12/30 01:28:52;;;;;;;2.05;0.68;;;17.60;56.50;;;;;;4853477;29;20053;-61
2020/12/30 01:31:19;;;;;;;0.57;0.38;;;17.60;56.50;;;;;;4853140;29;20045;-60
2020/12/30 01:33:46;;;;;;;1.38;0.40;;;17.60;56.50;;;;;;4854504;29;20065;-60
2020/12/30 01:36:13;;;;;;;1.23;0.60;;;17.60;56.50;;;;;;4853193;29;20652;-59
2020/12/30 01:38:39;;;;;;;1.83;1.00;;;17.70;56.70;;;;;;4855804;29;20144;-59
2020/12/30 01:41:06;;;;;;;1.13;0.50;;;17.60;56.40;;;;;;4853029;29;20045;-59
2020/12/30 01:43:32;;;;;;;2.28;0.75;;;17.60;56.50;;;;;;4853500;29;20045;-60
2020/12/30 01:45:59;;;;;;;1.77;1.05;;;17.60;56.50;;;;;;4853438;29;20049;-60
2020/12/30 01:48:26;;;;;;;0.98;0.75;;;17.60;56.50;;;;;;4852620;29;20132;-59
2020/12/30 01:50:54;;;;;;;1.55;0.57;;;17.60;56.60;;;;;;4855819;29;20041;-59
2020/12/30 01:53:21;;;;;;;1.63;0.50;;;17.60;56.50;;;;;;4856376;29;20053;-58
2020/12/30 01:55:53;;;;;;;2.60;0.73;;;17.60;56.40;;;;;;4858840;29;20064;-58
2020/12/30 01:58:20;;;;;;;1.05;0.50;;;17.60;56.60;;;;;;4855934;29;20041;-59
2020/12/30 02:00:53;;;;;;;0.50;0.30;;;17.60;56.50;;;;;;4857538;29;20046;-59
2020/12/30 02:03:20;;;;;;;1.02;0.80;;;17.70;56.50;;;;;;4853843;29;20049;-59
2020/12/30 02:05:47;;;;;;;1.60;0.50;;;17.60;56.40;;;;;;4856839;29;20049;-59
2020/12/30 02:08:14;;;;;;;0.75;0.75;;;17.60;56.40;;;;;;4855802;29;20083;-58
2020/12/30 02:10:41;;;;;;;0.88;0.80;;;17.60;56.50;;;;;;4857037;29;20125;-60
2020/12/30 02:13:08;;;;;;;0.55;0.20;;;17.60;56.50;;;;;;4859513;29;20100;-61
2020/12/30 02:15:34;;;;;;;0.45;0.28;;;17.60;56.40;;;;;;4859747;29;20132;-59
2020/12/30 02:18:01;;;;;;;1.65;0.95;;;17.60;56.40;;;;;;4859271;29;20744;-59
2020/12/30 02:20:30;;;;;;;2.05;0.93;;;17.60;56.30;;;;;;4860707;29;20533;-59
2020/12/30 02:23:02;;;;;;;1.30;0.77;;;17.60;56.50;;;;;;4859509;29;20050;-59
2020/12/30 02:25:30;;;;;;;2.05;1.02;;;17.60;56.40;;;;;;4859891;29;20037;-58
2020/12/30 02:27:56;;;;;;;1.08;0.70;;;17.60;56.40;;;;;;4859736;29;20077;-59
2020/12/30 02:30:23;;;;;;;1.10;0.70;;;17.60;56.40;;;;;;4843087;29;20048;-58
2020/12/30 02:32:50;;;;;;;0.95;0.52;;;17.60;56.40;;;;;;4856489;29;20519;-58
2020/12/30 02:35:21;;;;;;;1.65;0.35;;;17.60;56.40;;;;;;4859389;29;20433;-59
2020/12/30 02:37:48;;;;;;;0.35;0.35;;;17.60;56.40;;;;;;4859092;29;20057;-59
2020/12/30 02:40:14;;;;;;;0.95;0.40;;;17.60;56.40;;;;;;4858960;29;20050;-59
2020/12/30 02:42:42;;;;;;;0.70;0.38;;;17.60;56.30;;;;;;4847019;29;20136;-59
2020/12/30 02:45:09;;;;;;;3.42;0.52;;;17.60;56.40;;;;;;4859162;29;20057;-59
2020/12/30 02:47:36;;;;;;;0.93;0.50;;;17.60;56.40;;;;;;4843523;29;20501;-58
2020/12/30 02:50:05;;;;;;;2.05;0.45;;;17.60;56.50;;;;;;4855885;29;20128;-58
2020/12/30 02:52:31;;;;;;;1.17;0.45;;;17.60;56.50;;;;;;4854885;29;20045;-59
2020/12/30 02:54:58;;;;;;;1.00;0.70;;;17.60;56.50;;;;;;4855186;29;20049;-60
2020/12/30 02:57:24;;;;;;;0.93;0.73;;;17.60;56.40;;;;;;4855194;29;20045;-58
2020/12/30 02:59:56;;;;;;;1.23;0.47;;;17.60;56.40;;;;;;4853288;29;20049;-59
2020/12/30 03:02:24;;;;;;;1.20;0.47;;;17.60;56.40;;;;;;4852614;29;20057;-59
2020/12/30 03:04:51;;;;;;;0.77;0.77;;;17.60;56.40;;;;;;4852008;29;20108;-59
2020/12/30 03:07:17;;;;;;;1.08;0.70;;;17.60;56.40;;;;;;4852004;29;20057;-61
2020/12/30 03:09:44;;;;;;;0.80;0.60;;;17.60;56.50;;;;;;4851229;29;20136;-59
2020/12/30 03:12:11;;;;;;;1.52;0.68;;;17.60;56.40;;;;;;4851999;29;20053;-58
2020/12/30 03:14:37;;;;;;;0.80;0.30;;;17.60;56.40;;;;;;4853335;29;20057;-59
2020/12/30 03:17:06;;;;;;;0.50;0.40;;;17.60;56.40;;;;;;4851841;29;20057;-59
2020/12/30 03:19:32;;;;;;;0.30;0.30;;;17.60;56.40;;;;;;4854209;29;20528;-59
2020/12/30 03:21:59;;;;;;;1.40;0.73;;;17.60;56.30;;;;;;4855213;29;20115;-58
2020/12/30 03:24:25;;;;;;;0.93;0.40;;;17.60;56.30;;;;;;4856407;29;20132;-59
2020/12/30 03:26:52;;;;;;;3.25;1.10;;;17.60;56.30;;;;;;4857532;29;20601;-59
2020/12/30 03:29:18;;;;;;;0.70;0.50;;;17.60;56.20;;;;;;4858341;29;20148;-58
2020/12/30 03:31:45;;;;;;;0.68;0.38;;;17.60;56.20;;;;;;4858335;29;20049;-59
2020/12/30 03:34:12;;;;;;;5.82;0.80;;;17.60;56.20;;;;;;4857893;29;20459;-59
2020/12/30 03:36:39;;;;;;;1.90;0.63;;;17.60;56.30;;;;;;4858334;29;20057;-59
2020/12/30 03:39:06;;;;;;;0.52;0.35;;;17.60;56.30;;;;;;4858475;29;20069;-59
2020/12/30 03:41:32;;;;;;;0.82;0.50;;;17.50;56.20;;;;;;4858907;29;20050;-60
2020/12/30 03:43:59;;;;;;;0.88;0.55;;;17.50;56.20;;;;;;4857848;29;20128;-59
2020/12/30 03:46:25;;;;;;;0.60;0.60;;;17.60;56.20;;;;;;4858168;29;20149;-60
2020/12/30 03:48:52;;;;;;;0.93;0.30;;;17.60;56.20;;;;;;4841479;29;20136;-60
2020/12/30 03:51:19;;;;;;;1.27;0.63;;;17.60;56.20;;;;;;4858024;29;20541;-59
2020/12/30 03:53:46;;;;;;;0.50;0.38;;;17.60;56.20;;;;;;4859500;29;20125;-59
2020/12/30 03:56:12;;;;;;;0.63;0.63;;;17.50;56.10;;;;;;4857903;29;20056;-59
2020/12/30 03:58:39;;;;;;;2.25;0.60;;;17.50;56.10;;;;;;4857293;29;20124;-59
2020/12/30 04:01:06;;;;;;;0.57;0.32;;;17.60;56.20;;;;;;4857773;29;20045;-59
2020/12/30 04:03:32;;;;;;;1.40;0.82;;;17.50;56.20;;;;;;4858120;29;20052;-59
2020/12/30 04:05:59;;;;;;;1.45;0.30;;;17.50;56.10;;;;;;4858358;29;20049;-59
2020/12/30 04:08:26;;;;;;;0.80;0.40;;;17.50;56.10;;;;;;4858941;29;20063;-60
2020/12/30 04:10:53;;;;;;;1.27;0.65;;;17.60;56.20;;;;;;4857790;29;20049;-59
2020/12/30 04:13:19;;;;;;;1.92;0.57;;;17.50;56.10;;;;;;4857578;29;20077;-59
2020/12/30 04:15:46;;;;;;;0.90;0.60;;;17.50;56.10;;;;;;4857914;29;20049;-59
2020/12/30 04:18:13;;;;;;;0.75;0.40;;;17.50;56.10;;;;;;4857503;29;20061;-59
2020/12/30 04:20:39;;;;;;;0.55;0.32;;;17.50;56.10;;;;;;4858991;29;20597;-59
2020/12/30 04:23:06;;;;;;;1.08;0.50;;;17.50;56.10;;;;;;4857513;29;20410;-59
2020/12/30 04:25:33;;;;;;;0.98;0.40;;;17.50;56.00;;;;;;4857462;29;20522;-59
2020/12/30 04:28:00;;;;;;;1.23;0.73;;;17.50;56.00;;;;;;4857103;29;20462;-59
2020/12/30 04:30:26;;;;;;;1.48;0.85;;;17.50;56.00;;;;;;4857588;29;20052;-60
2020/12/30 04:32:53;;;;;;;1.27;0.93;;;17.50;56.00;;;;;;4858496;29;20098;-60
2020/12/30 04:35:20;;;;;;;0.60;0.50;;;17.50;56.00;;;;;;4857776;29;20058;-59
2020/12/30 04:37:46;;;;;;;0.50;0.50;;;17.50;55.90;;;;;;4857053;29;20049;-59
2020/12/30 04:40:13;;;;;;;0.70;0.68;;;17.50;55.90;;;;;;4856895;29;20106;-59
2020/12/30 04:42:42;;;;;;;3.45;0.70;;;17.50;56.00;;;;;;4856430;29;20145;-59
2020/12/30 04:45:10;;;;;;;0.82;0.45;;;17.50;55.90;;;;;;4856246;29;20529;-60
2020/12/30 04:47:39;;;;;;;3.50;0.50;;;17.50;55.90;;;;;;4840869;29;20077;-59
2020/12/30 04:50:05;;;;;;;1.58;0.57;;;17.50;56.00;;;;;;4855960;29;20514;-59
2020/12/30 04:52:32;;;;;;;0.85;0.55;;;17.50;56.10;;;;;;4856084;29;20041;-59
2020/12/30 04:55:01;;;;;;;0.75;0.75;;;17.50;56.10;;;;;;4856573;29;20046;-59
2020/12/30 04:57:41;;;;;;;0.80;0.60;;;17.50;56.00;;;;;;4856092;29;20053;-59
2020/12/30 05:00:08;;;;;;;0.85;0.60;;;17.50;56.00;;;;;;4856426;29;20053;-59
2020/12/30 05:02:41;;;;;;;0.85;0.70;;;17.50;56.00;;;;;;4857853;29;20056;-59
2020/12/30 05:05:07;;;;;;;0.70;0.70;;;17.50;56.00;;;;;;4839519;29;20076;-62
2020/12/30 05:07:34;;;;;;;2.60;0.98;;;17.50;56.10;;;;;;4856095;29;20132;-59
2020/12/30 05:10:00;;;;;;;1.00;0.68;;;17.50;55.90;;;;;;4856100;29;20601;-59
2020/12/30 05:12:27;;;;;;;1.40;0.57;;;17.50;55.80;;;;;;4856584;29;20144;-59
2020/12/30 05:14:53;;;;;;;1.50;0.88;;;17.50;55.70;;;;;;4826843;29;20050;-59
2020/12/30 05:17:21;;;;;;;2.72;0.82;;;17.50;55.70;;;;;;4856999;29;20081;-60
2020/12/30 05:19:48;;;;;;;2.70;0.88;;;17.50;55.70;;;;;;4824785;29;20053;-60
2020/12/30 05:22:17;;;;;;;1.15;0.60;;;17.50;55.70;;;;;;4839246;29;20079;-60
2020/12/30 05:24:47;;;;;;;1.13;0.30;;;17.50;56.30;;;;;;4856628;29;20044;-60
2020/12/30 05:27:15;;;;;;;2.00;0.60;;;17.50;55.60;;;;;;4839778;29;20046;-60
2020/12/30 05:29:45;;;;;;;1.77;0.63;;;17.50;55.60;;;;;;4857639;29;20049;-60
2020/12/30 05:32:12;;;;;;;0.70;0.52;;;17.50;55.70;;;;;;4856562;29;20178;-60
2020/12/30 05:34:39;;;;;;;1.48;0.45;;;17.50;55.70;;;;;;4855818;29;20128;-60
2020/12/30 05:37:06;;;;;;;3.63;0.73;;;17.50;55.60;;;;;;4856443;29;20049;-61
2020/12/30 05:39:34;;;;;;;1.80;1.00;;;17.50;55.50;;;;;;4856695;29;20132;-61
2020/12/30 05:42:11;;;;;;;2.00;1.02;;;17.50;55.50;;;;;;4856522;29;20053;-60
2020/12/30 05:44:38;;;;;;;0.60;0.50;;;17.50;55.50;;;;;;4857582;29;20061;-60
2020/12/30 05:47:15;;;;;;;2.63;0.93;;;17.40;55.50;;;;;;4856106;29;20105;-60
2020/12/30 05:49:44;;;;;;;1.58;0.38;;;17.50;55.60;;;;;;4856079;29;20106;-61
2020/12/30 05:52:15;;;;;;;1.20;0.77;;;17.50;55.50;;;;;;4856294;29;20106;-60
2020/12/30 05:54:54;;;;;;;3.67;0.77;;;17.50;55.40;;;;;;4856143;29;20045;-60
2020/12/30 05:57:22;;;;;;;1.02;0.95;;;17.50;55.50;;;;;;4857885;29;20065;-60
2020/12/30 05:59:50;;;;;;;0.75;0.68;;;17.40;55.50;;;;;;4858171;29;20512;-59
2020/12/30 06:02:22;;;;;;;3.20;0.95;;;17.40;55.50;;;;;;4850225;29;20585;-60
2020/12/30 06:04:50;;;;;;;1.33;0.55;;;17.40;55.50;;;;;;4839663;29;20077;-59
2020/12/30 06:07:18;;;;;;;1.95;1.15;;;17.50;55.40;;;;;;4856510;29;20481;-60
2020/12/30 06:09:51;;;;;;;2.20;1.65;;;17.40;55.40;;;;;;4855594;29;20061;-59
2020/12/30 06:12:23;;;;;;;1.58;0.70;;;17.50;55.50;;;;;;4855600;29;20061;-61
2020/12/30 06:14:51;;;;;;;1.58;0.88;;;17.40;55.50;;;;;;4857213;29;20133;-60
2020/12/30 06:17:26;;;;;;;0.88;0.52;;;17.40;55.40;;;;;;4855567;29;20064;-61
2020/12/30 06:19:54;;;;;;;1.83;0.75;;;17.40;55.50;;;;;;4852842;29;20054;-60
2020/12/30 06:22:22;;;;;;;2.28;1.05;;;17.40;55.40;;;;;;4855268;29;20041;-60
2020/12/30 06:24:52;;;;;;;1.23;0.88;;;17.40;55.40;;;;;;4857405;29;20501;-60
2020/12/30 06:27:21;;;;;;;1.98;1.33;;;17.40;55.50;;;;;;4859958;29;20057;-60
2020/12/30 06:29:50;;;;;;;2.00;0.93;;;17.40;55.40;;;;;;4855519;29;20072;-60
2020/12/30 06:32:27;;;;;;;1.00;0.93;;;17.40;55.40;;;;;;4852177;29;20093;-60
2020/12/30 06:34:55;;;;;;;1.67;0.95;;;17.40;55.30;;;;;;4851587;29;20052;-59
2020/12/30 06:37:29;;;;;;;3.03;0.60;;;17.40;55.50;;;;;;4851830;29;20113;-60
2020/12/30 06:40:31;;;;;;;0.98;0.30;;;17.40;55.40;;;;;;4849694;29;20050;-60
2020/12/30 06:43:00;;;;;;;0.73;0.70;;;17.40;55.40;;;;;;4853372;29;20078;-61
2020/12/30 06:45:50;;;;;;;7.28;1.20;;;17.30;55.50;;;;;;4853347;29;20061;-60
2020/12/30 06:48:19;;;;;;;1.13;0.60;;;17.40;55.40;;;;;;4854704;29;20168;-60
2020/12/30 06:50:47;;;;;;;3.40;0.82;;;17.30;55.50;;;;;;4855055;29;20049;-61
2020/12/30 06:53:30;;;;;;;1.13;0.98;;;17.30;55.50;;;;;;4854203;29;20522;-61
2020/12/30 06:55:58;;;;;;;3.85;0.45;;;17.30;55.50;;;;;;4853355;29;20055;-61
2020/12/30 06:58:52;;;;;;;1.17;1.10;;;17.30;55.60;;;;;;4854897;29;20057;-59
2020/12/30 07:01:20;;;;;;;1.42;0.93;;;17.30;55.60;;;;;;4856356;29;20088;-59
2020/12/30 07:03:48;;;;;;;0.93;0.88;;;17.30;55.70;;;;;;4855448;29;20069;-60
2020/12/30 07:06:25;;;;;;;1.33;0.63;;;17.30;55.70;;;;;;4856281;29;20585;-59
2020/12/30 07:08:52;;;;;;;0.63;0.63;;;17.30;55.50;;;;;;4856630;29;20183;-60
2020/12/30 07:11:42;;;;;;;1.40;0.50;;;17.20;55.50;;;;;;4858578;29;20049;-60
2020/12/30 07:14:10;;;;;;;3.00;0.70;;;17.30;55.60;;;;;;4858644;29;20113;-61
2020/12/30 07:16:38;;;;;;;0.77;0.40;;;17.20;55.80;;;;;;4858903;29;20136;-59
2020/12/30 07:19:16;;;;;;;5.88;0.80;;;17.20;55.70;;;;;;4854982;29;20061;-60
2020/12/30 07:21:52;;;;;;;1.50;1.05;;;17.30;55.90;;;;;;4853710;29;20053;-63
2020/12/30 07:24:20;;;;;;;2.53;1.00;;;17.20;55.90;;;;;;4854729;29;20081;-60
2020/12/30 07:26:48;;;;;;;6.25;0.95;;;17.20;55.90;;;;;;4854907;29;20053;-60
2020/12/30 07:29:14;;;;;;;4.25;0.70;;;17.30;56.00;;;;;;4855013;29;20042;-62
2020/12/30 07:31:41;;;;;;;9.90;0.73;;;17.20;55.90;;;;;;4855413;29;20061;-62
2020/12/30 07:34:21;;;;;;;0.30;0.28;;;17.20;56.10;;;;;;4857742;29;20376;-60
2020/12/30 07:36:49;;;;;;;2.08;0.50;;;17.30;56.80;;;;;;4855478;29;20073;-60
2020/12/30 07:39:22;;;;;;;3.08;0.28;;;17.20;56.80;;;;;;4857197;29;20087;-61
2020/12/30 07:41:49;;;;;;;8.30;0.47;;;17.30;56.90;;;;;;4842716;29;20060;-59
2020/12/30 07:44:16;;;;;;;0.50;0.45;;;17.30;56.80;;;;;;4855696;29;20291;-61
2020/12/30 07:46:43;;;;;;;1.23;0.90;;;17.30;56.70;;;;;;4856041;29;20057;-60
2020/12/30 07:49:12;;;;;;;0.63;0.47;;;17.40;56.50;;;;;;4857650;29;20196;-60
2020/12/30 07:51:51;;;;;;;6.78;1.17;;;17.40;56.40;;;;;;4861637;29;20061;-59
2020/12/30 07:54:21;;;;;;;3.22;0.30;;;17.40;57.60;;;;;;4854313;29;20148;-61
2020/12/30 07:56:49;;;;;;;15.48;1.13;;;17.50;58.30;;;;;;4859169;29;20050;-60
2020/12/30 07:59:23;;;;;;;8.23;1.67;;;17.50;58.90;;;;;;4855235;29;20625;-60
2020/12/30 08:01:57;;;;;;;9.88;1.30;;;17.50;59.60;;;;;;4856557;29;20145;-62
2020/12/30 08:04:24;;;;;;;11.55;1.48;;;17.60;59.90;;;;;;4848247;29;20053;-63
2020/12/30 08:06:51;;;;;;;10.57;1.33;;;17.60;59.90;;;;;;4854166;29;20045;-61
2020/12/30 08:09:18;;;;;;;9.80;1.08;;;17.60;60.20;;;;;;4855453;29;20049;-61
2020/12/30 08:11:52;;;;;;;6.10;1.23;;;17.60;60.20;;;;;;4858245;29;20426;-60
2020/12/30 08:14:20;;;;;;;12.23;1.15;;;17.70;60.50;;;;;;4838306;29;20537;-60
2020/12/30 08:16:54;;;;;;;5.30;1.42;;;17.70;60.40;;;;;;4860678;29;20097;-61
2020/12/30 08:19:37;;;;;;;4.97;1.52;;;17.70;60.50;;;;;;4855624;29;20518;-62
2020/12/30 08:22:13;;;;;;;5.95;0.82;;;17.80;60.60;;;;;;4854074;29;20053;-60
2020/12/30 08:24:42;;;;;;;5.13;1.20;;;17.80;60.70;;;;;;4855962;29;20056;-61
2020/12/30 08:27:10;;;;;;;7.30;1.23;;;17.80;60.50;;;;;;4855493;29;20467;-61
2020/12/30 08:29:38;;;;;;;4.60;1.05;;;17.80;60.60;;;;;;4826900;29;20057;-60
2020/12/30 08:32:15;;;;;;;3.33;1.33;;;17.80;60.70;;;;;;4840969;29;20042;-61
2020/12/30 08:34:47;;;;;;;5.18;0.70;;;17.80;60.70;;;;;;4848939;29;20041;-61
2020/12/30 08:37:22;;;;;;;4.18;0.70;;;17.90;60.90;;;;;;4836835;29;20520;-61
2020/12/30 08:39:54;;;;;;;2.58;0.40;;;17.90;60.90;;;;;;4855663;29;20601;-61
2020/12/30 08:42:43;;;;;;;5.43;1.20;;;17.90;60.80;;;;;;4853019;29;20118;-61
2020/12/30 08:45:13;;;;;;;5.55;1.13;;;17.90;60.80;;;;;;4854802;29;20084;-62
2020/12/30 08:47:41;;;;;;;6.03;1.02;;;17.90;60.60;;;;;;4845317;29;20093;-61
2020/12/30 08:50:08;;;;;;;1.98;0.75;;;17.90;60.50;;;;;;4854676;29;20045;-62
2020/12/30 08:52:42;;;;;;;4.00;1.52;;;17.90;60.30;;;;;;4855655;29;20049;-61
2020/12/30 08:55:10;;;;;;;3.33;1.98;;;18.00;60.50;;;;;;4828831;29;20058;-61
2020/12/30 08:57:42;;;;;;;5.88;1.27;;;18.00;60.30;;;;;;4853299;29;20502;-60
2020/12/30 09:00:12;;;;;;;3.33;1.10;;;18.00;60.10;;;;;;4853377;29;20468;-62
2020/12/30 09:02:39;;;;;;;1.60;0.88;;;18.00;60.10;;;;;;4855407;29;20049;-62
2020/12/30 09:05:06;;;;;;;7.13;0.70;;;18.00;59.90;;;;;;4855320;29;20069;-61
2020/12/30 09:07:32;;;;;;;6.07;0.75;;;18.00;59.90;;;;;;4854895;29;20053;-63
2020/12/30 09:10:07;;;;;;;3.08;0.73;;;18.00;59.90;;;;;;4855282;29;20057;-61
2020/12/30 09:12:33;;;;;;;5.57;0.60;;;18.10;59.90;;;;;;4854293;29;20061;-61
2020/12/30 09:15:00;;;;;;;2.05;0.82;;;18.10;59.70;;;;;;4855084;29;20088;-60
2020/12/30 09:17:27;;;;;;;3.35;1.42;;;18.10;59.70;;;;;;4852911;29;20808;-60
2020/12/30 09:20:08;;;;;;;3.08;1.20;;;18.10;59.60;;;;;;4823709;29;20056;-61
2020/12/30 09:22:35;;;;;;;1.17;1.08;;;18.10;59.50;;;;;;4838511;29;20050;-62
2020/12/30 09:25:02;;;;;;;1.27;0.35;;;18.10;59.20;;;;;;4856713;29;20061;-62
2020/12/30 09:27:33;;;;;;;1.60;0.70;;;18.10;59.20;;;;;;4854296;29;20072;-62
2020/12/30 09:30:13;;;;;;;0.88;0.30;;;18.20;60.00;;;;;;4854794;29;20116;-61
2020/12/30 09:32:41;;;;;;;1.67;0.68;;;18.10;59.70;;;;;;4853168;29;20178;-61
2020/12/30 09:35:09;;;;;;;4.22;0.70;;;18.10;59.10;;;;;;4854983;29;20464;-62
2020/12/30 09:37:36;;;;;;;1.75;0.43;;;18.10;59.20;;;;;;4855625;29;20055;-60
2020/12/30 09:40:11;;;;;;;4.03;0.52;;;18.20;59.20;;;;;;4854463;29;20060;-62
2020/12/30 09:42:39;;;;;;;2.25;0.52;;;18.20;59.50;;;;;;4859625;29;20136;-62
2020/12/30 09:45:08;;;;;;;1.17;0.40;;;18.20;59.30;;;;;;4852512;29;20041;-61
2020/12/30 09:47:35;;;;;;;1.48;0.50;;;18.20;59.30;;;;;;4853535;29;20112;-61
2020/12/30 09:50:04;;;;;;;3.25;0.55;;;18.20;59.30;;;;;;4852348;29;20523;-61
2020/12/30 09:52:34;;;;;;;0.80;0.40;;;18.20;59.10;;;;;;4856130;29;20053;-62
2020/12/30 09:55:02;;;;;;;0.68;0.43;;;18.20;59.20;;;;;;4852344;29;20065;-61
2020/12/30 09:57:29;;;;;;;0.57;0.43;;;18.20;59.00;;;;;;4852439;29;20150;-61
2020/12/30 09:59:56;;;;;;;2.63;0.40;;;18.20;58.90;;;;;;4854233;29;20058;-61
2020/12/30 10:02:23;;;;;;;0.40;0.40;;;18.20;59.00;;;;;;4853920;29;20471;-61
2020/12/30 10:04:50;;;;;;;0.85;0.50;;;18.20;58.80;;;;;;4854684;29;20133;-62
2020/12/30 10:07:16;;;;;;;2.42;0.43;;;18.20;58.60;;;;;;4860575;29;20049;-61
2020/12/30 10:09:43;;;;;;;1.17;0.50;;;18.20;58.50;;;;;;4851396;29;20071;-61
2020/12/30 10:12:10;;;;;;;1.42;0.68;;;18.20;58.40;;;;;;4860496;29;20048;-60
2020/12/30 10:14:36;;;;;;;0.73;0.73;;;18.20;58.30;;;;;;4852860;29;20200;-62
2020/12/30 10:17:06;;;;;;;1.92;0.57;;;18.20;58.30;;;;;;4852005;29;20069;-61
2020/12/30 10:19:33;;;;;;;0.95;0.32;;;18.30;58.30;;;;;;4855083;29;20137;-62
2020/12/30 10:22:00;;;;;;;1.65;1.00;;;18.20;58.10;;;;;;4854026;29;20080;-60
2020/12/30 10:24:27;;;;;;;1.75;0.70;;;18.20;58.20;;;;;;4852727;29;20137;-61
2020/12/30 10:26:53;;;;;;;1.27;0.40;;;18.20;58.20;;;;;;4852507;29;20522;-62
2020/12/30 10:29:20;;;;;;;1.23;0.55;;;18.20;58.10;;;;;;4854718;29;20502;-62
2020/12/30 10:31:49;;;;;;;0.57;0.20;;;18.30;58.00;;;;;;4857368;29;20050;-61
2020/12/30 10:34:18;;;;;;;1.75;0.52;;;18.30;58.20;;;;;;4859607;29;20171;-61
2020/12/30 10:36:44;;;;;;;1.65;0.30;;;18.30;58.30;;;;;;4855924;29;20054;-62
2020/12/30 10:39:11;;;;;;;1.08;0.73;;;18.30;58.40;;;;;;4855882;29;20057;-62
2020/12/30 10:41:38;;;;;;;0.70;0.38;;;18.20;58.70;;;;;;4858966;29;20137;-61
2020/12/30 10:44:05;;;;;;;1.40;0.47;;;18.30;59.00;;;;;;4859910;29;20042;-61
2020/12/30 10:46:31;;;;;;;1.02;0.57;;;18.30;59.20;;;;;;4858174;29;20518;-61
2020/12/30 10:48:58;;;;;;;1.17;0.47;;;18.30;59.40;;;;;;4858428;29;20514;-61
2020/12/30 10:51:25;;;;;;;3.50;0.60;;;18.30;59.70;;;;;;4856205;29;20052;-62
2020/12/30 10:53:52;;;;;;;1.77;0.40;;;18.30;59.90;;;;;;4856111;29;20097;-61
2020/12/30 10:56:19;;;;;;;2.17;0.95;;;18.30;59.90;;;;;;4856196;29;20057;-61
2020/12/30 10:58:46;;;;;;;1.05;0.30;;;18.30;60.00;;;;;;4856908;29;20064;-61
2020/12/30 11:01:14;;;;;;;0.68;0.22;;;18.30;59.70;;;;;;4859437;29;20049;-62
2020/12/30 11:03:41;;;;;;;2.28;0.20;;;18.30;59.60;;;;;;4856598;29;20518;-61
2020/12/30 11:06:08;;;;;;;0.52;0.20;;;18.30;59.50;;;;;;4856627;29;20053;-62
2020/12/30 11:08:36;;;;;;;0.75;0.32;;;18.30;59.70;;;;;;4856260;29;20423;-61
2020/12/30 11:11:04;;;;;;;1.33;0.20;;;18.30;59.60;;;;;;4856315;29;20049;-61
2020/12/30 11:13:31;;;;;;;1.10;0.65;;;18.30;59.40;;;;;;4858580;29;20090;-61
2020/12/30 11:15:58;;;;;;;1.20;0.15;;;18.30;59.30;;;;;;4857639;29;20140;-61
2020/12/30 11:18:25;;;;;;;1.88;0.88;;;18.30;59.40;;;;;;4857604;29;20060;-61
2020/12/30 11:20:52;;;;;;;1.42;0.40;;;18.30;59.60;;;;;;4857225;29;20056;-61
2020/12/30 11:23:19;;;;;;;0.40;0.20;;;18.30;59.50;;;;;;4855293;29;20053;-60
2020/12/30 11:25:47;;;;;;;1.30;0.30;;;18.30;59.50;;;;;;4857462;29;20061;-61
2020/12/30 11:28:14;;;;;;;1.27;0.25;;;18.30;59.20;;;;;;4859740;29;20065;-60
2020/12/30 11:30:41;;;;;;;0.90;0.40;;;18.30;59.00;;;;;;4856321;29;20395;-61
2020/12/30 11:33:07;;;;;;;1.40;0.30;;;18.30;59.00;;;;;;4856185;29;20060;-60
2020/12/30 11:35:34;;;;;;;2.60;0.35;;;18.30;58.90;;;;;;4856152;29;20422;-63
2020/12/30 11:38:01;;;;;;;0.63;0.20;;;18.40;58.90;;;;;;4857446;29;20467;-62
2020/12/30 11:40:28;;;;;;;0.60;0.20;;;18.30;58.70;;;;;;4858570;29;20071;-61
2020/12/30 11:42:56;;;;;;;1.20;0.22;;;18.30;58.80;;;;;;4855766;29;20053;-61
2020/12/30 11:45:23;;;;;;;0.30;0.20;;;18.40;58.90;;;;;;4855530;29;20434;-62
2020/12/30 11:47:49;;;;;;;0.73;0.10;;;18.40;58.90;;;;;;4857265;29;20049;-61
2020/12/30 11:50:16;;;;;;;0.60;0.20;;;18.40;59.00;;;;;;4841436;29;20041;-62
2020/12/30 11:52:43;;;;;;;2.67;0.20;;;18.40;59.10;;;;;;4856758;29;20065;-62
2020/12/30 11:55:10;;;;;;;0.85;0.10;;;18.40;59.10;;;;;;4859630;29;20530;-60
2020/12/30 11:57:37;;;;;;;0.88;0.28;;;18.40;59.10;;;;;;4854799;29;20057;-61
2020/12/30 12:00:06;;;;;;;2.95;0.20;;;18.40;59.10;;;;;;4855707;29;20057;-63
2020/12/30 12:02:33;;;;;;;0.82;0.10;;;18.40;59.20;;;;;;4855647;29;20049;-61
2020/12/30 12:05:00;;;;;;;0.20;0.20;;;18.40;59.70;;;;;;4856433;29;20467;-61
2020/12/30 12:07:29;;;;;;;0.60;0.20;;;18.40;59.20;;;;;;4857995;29;20068;-62
2020/12/30 12:09:55;;;;;;;1.33;0.10;;;18.40;59.20;;;;;;4856099;29;20068;-66
2020/12/30 12:12:23;;;;;;;0.50;0.43;;;18.40;59.20;;;;;;4854573;29;20057;-61
2020/12/30 12:14:49;;;;;;;0.90;0.20;;;18.50;59.30;;;;;;4855756;29;20642;-61
2020/12/30 12:17:17;;;;;;;0.28;0.28;;;18.40;59.30;;;;;;4859905;29;20052;-62
2020/12/30 12:19:43;;;;;;;0.85;0.50;;;18.40;59.30;;;;;;4857187;29;20471;-61
2020/12/30 12:22:10;;;;;;;0.40;0.25;;;18.40;59.30;;;;;;4857206;29;20060;-61
2020/12/30 12:24:38;;;;;;;2.92;0.20;;;18.40;59.30;;;;;;4854626;29;20058;-61
2020/12/30 12:27:04;;;;;;;0.50;0.30;;;18.40;59.30;;;;;;4856048;29;20270;-61
2020/12/30 12:29:49;;;;;;;0.32;0.10;;;18.50;59.40;;;;;;4855095;29;20414;-61
2020/12/30 12:32:18;;;;;;;0.20;0.20;;;18.50;59.30;;;;;;4855399;29;20080;-61
2020/12/30 12:34:47;;;;;;;2.00;0.30;;;18.50;59.40;;;;;;4856371;29;20080;-61
2020/12/30 12:37:15;;;;;;;0.55;0.20;;;18.50;59.40;;;;;;4857999;29;20049;-62
2020/12/30 12:39:43;;;;;;;1.02;0.10;;;18.50;59.40;;;;;;4854935;29;20528;-61
2020/12/30 12:42:11;;;;;;;0.55;0.13;;;18.50;59.40;;;;;;4836834;29;20045;-61
2020/12/30 12:44:38;;;;;;;0.30;0.10;;;18.50;59.30;;;;;;4854891;29;20154;-61
2020/12/30 12:47:04;;;;;;;0.40;0.30;;;18.50;59.30;;;;;;4838416;29;20049;-61
2020/12/30 12:49:32;;;;;;;1.70;0.15;;;18.50;59.30;;;;;;4840801;29;20053;-61
2020/12/30 12:51:59;;;;;;;0.70;0.68;;;18.50;59.20;;;;;;4856235;29;20057;-61